Relevés horaires Semmerzake (Belgique)


Relevés horaires à Semmerzake - Mardi 23 Févr. 2021
Heure UTC1 Température [°C] Vent [km/h] Hum. [%] Pres.4 [hPa] Visi. [Km] Nébu. [octa] Préc.5 [mm] Cond.
2m. Res. Ros. Dir.2 Vit. Moy. Raf.3
23:00 14.1 13.4 8.5 SSO 11.1 -- 16.7 69 1029.5(0.9/3h) 20 -- -- --
22:00 13.8 13 8.7 SSO 11.1 -- 18.5 71 1028.5(-0.4/3h) 20 -- -- --
21:00 13.9 13.1 8.9 S 11.1 -- 16.7 72 1027.7(0.9/3h) 20 -- -- --
20:00 13.8 13.3 9.2 S 9.3 -- 16.7 74 1028(-0.6/3h) 20 -- -- --
19:00 14.3 13.9 9.4 S 9.3 -- 14.8 72 1028.7(0.1/3h) 20 -- -- --
18:00 14.2 13.7 9.5 S 9.3 -- 29.6 73 1028(0.4/3h) 20 -- -- --
17:00 15.8 15.2 9.5 SSO 13.0 -- 20.4 66 1028.2(0.4/3h) 20 -- -- --
16:00 16.3 15.9 9.7 SSO 13.0 -- 24.1 65 1028.5(0.3/3h) 20 -- -- --
15:00 16.2 15.6 9.2 SSO 14.8 -- 29.6 63 1028(0.1/3h) 19 -- -- --
14:00 16.5 15.9 9.8 SSO 14.8 -- 25.9 65 1028.2(0.0/3h) 20 -- -- --
13:00 16.2 15.6 9.5 SSO 14.8 -- 29.6 64 1028.5(0.1/3h) 20 -- -- --
12:00 15.9 14.8 9.1 SSO 20.4 -- 29.6 64 1027.5(-0.1/3h) 19 -- -- --
11:00 15.5 14.6 8.9 SSO 16.7 -- 27.8 65 1028(0.0/3h) 19 -- -- --
10:00 14.7 14.1 9.1 SSO 11.1 -- 22.2 69 1028(0.5/3h) 19 -- -- --
09:00 13.1 12.2 8.5 S 11.1 -- 18.5 74 1028(1.2/3h) 19 -- -- --
08:00 12.5 11.7 8.5 S 9.3 -- 14.8 77 1027.7(1.6/3h) 18 -- -- --
07:00 12.1 11.2 8.4 S 9.3 -- 14.8 78 1027.5(1.2/3h) 14 -- -- --
06:00 11.3 10.7 7.8 S 7.4 -- 11.1 79 1026.7(1.9/3h) 12 -- -- --
05:00 10.8 10.1 7.5 S 7.4 -- 11.1 80 1026.2(2.2/3h) 13 -- -- --
04:00 10.5 10.5 7.3 NNO 1.9 -- 9.3 81 1026.4(2.1/3h) 13 -- -- --
03:00 11.2 10.5 7.2 S 7.4 -- 9.3 76 1025(1.2/3h) 13 -- -- --
02:00 11.0 10.7 7.1 SSE 5.6 -- 9.3 77 1024(0.0/3h) 12 -- -- --
01:00 11.9 11.8 7.3 SSE 5.6 -- 9.3 73 1023.8(0.4/3h) 12 -- -- --
00:00 12.1 12 7.6 S 5.6 -- 13.0 74 1023.8(0.6/3h) 13 -- -- NA

1 Coordinated Universal Time. Actuellement il est 21:00 locale et 19:00 UTC.

2 Le vent souffle depuis la direction indiquée vers la direction oposée.

3 Les rafales max. sont disponible 40 min après l'heure du relevé.

4 Pour les stations d'altitude (plus de 600m) le géopotentiel du niveau le plus proche de la pression obligatoire est indiqué.

5 Les stations disposant d'un diffuseur peuvent indiquer "trace". Cela signifie que des précipitations ont touchés le sol mais que la quantité est inférieure à 0.1 mm.

Récapitulatif de la journée
Température [°C] Vent [km/h] Ensoleillement4 [h] Precipitations totale5 [mm] Pression [Hpa]
Min1 Max.2 Moy.3 Max. Min Max.
9.5 16.6 0 29.6 0 h 0 min 0 1023.8 1029.5

1 Température minimale relevée entre 18:00 UTC la veille et 18:00 UTC le jour donné.

2 Température maximale relevée entre 06:00 UTC le jour donné et 06:00 UTC le lendemain.

3 Vent moyen de la journée basé sur les relevés horaires.

4 Ensoleillement en heures relevé entre 06:00 UTC la veille et 06:00 UTC le jour donné.

5 Précipitations totales tombées entre 06:00 UTC la jour donné et 06:00 UTC le lendemain.

Graphiques horaires